createdAt,value
2019-02-07T00:01:13.133Z,6.50
2019-02-07T00:03:43.038Z,6.40
2019-02-07T00:06:12.295Z,6.40
2019-02-07T00:08:41.609Z,6.40
2019-02-07T00:11:11.154Z,6.30
2019-02-07T00:13:40.400Z,6.20
2019-02-07T00:16:09.929Z,6.20
2019-02-07T00:18:39.745Z,6.10
2019-02-07T00:21:09.000Z,6.10
2019-02-07T00:23:38.352Z,6.00
2019-02-07T00:26:07.605Z,5.90
2019-02-07T00:28:36.977Z,5.90
2019-02-07T00:31:06.250Z,5.90
2019-02-07T00:33:35.969Z,5.90
2019-02-07T00:36:05.330Z,5.80
2019-02-07T00:38:34.544Z,5.80
2019-02-07T00:41:03.837Z,5.80
2019-02-07T00:43:33.125Z,5.90
2019-02-07T00:46:02.396Z,5.90
2019-02-07T00:48:31.929Z,5.90
2019-02-07T00:51:01.203Z,5.90
2019-02-07T00:53:30.473Z,5.90
2019-02-07T00:55:59.813Z,5.90
2019-02-07T00:58:29.087Z,5.90
2019-02-07T01:00:58.462Z,6.00
2019-02-07T01:03:28.048Z,6.00
2019-02-07T01:05:57.811Z,6.00
2019-02-07T01:08:27.214Z,6.00
2019-02-07T01:10:56.804Z,6.00
2019-02-07T01:13:26.107Z,6.00
2019-02-07T01:15:55.700Z,6.00
2019-02-07T01:18:25.068Z,6.00
2019-02-07T01:20:54.350Z,6.00
2019-02-07T01:23:23.972Z,6.00
2019-02-07T01:25:53.326Z,6.00
2019-02-07T01:28:22.697Z,6.00
2019-02-07T01:30:51.954Z,6.00
2019-02-07T01:33:21.320Z,6.00
2019-02-07T01:35:54.933Z,6.00
2019-02-07T01:38:24.354Z,6.00
2019-02-07T01:40:53.652Z,6.00
2019-02-07T01:43:23.279Z,6.00
2019-02-07T01:45:52.683Z,6.00
2019-02-07T01:48:22.026Z,6.00
2019-02-07T01:50:51.604Z,6.00
2019-02-07T01:53:20.920Z,6.00
2019-02-07T01:55:50.148Z,6.00
2019-02-07T01:58:19.428Z,6.00
2019-02-07T02:00:48.774Z,6.00
2019-02-07T02:03:18.052Z,6.00
2019-02-07T02:05:47.309Z,6.00
2019-02-07T02:08:16.637Z,6.00
2019-02-07T02:10:46.014Z,6.00
2019-02-07T02:13:15.257Z,6.00
2019-02-07T02:15:44.530Z,6.10
2019-02-07T02:18:19.318Z,6.10
2019-02-07T02:20:49.005Z,6.10
2019-02-07T02:23:18.274Z,6.20
2019-02-07T02:25:47.824Z,6.20
2019-02-07T02:28:17.022Z,6.20
2019-02-07T02:30:46.965Z,6.20
2019-02-07T02:33:16.307Z,6.20
2019-02-07T02:35:46.721Z,6.20
2019-02-07T02:38:16.031Z,6.30
2019-02-07T02:40:45.625Z,6.30
2019-02-07T02:43:15.218Z,6.30
2019-02-07T02:45:45.070Z,6.30
2019-02-07T02:48:14.353Z,6.40
2019-02-07T02:50:43.623Z,6.40
2019-02-07T02:53:12.886Z,6.40
2019-02-07T02:55:43.879Z,6.40
2019-02-07T02:58:13.136Z,6.50
2019-02-07T03:01:13.705Z,6.50
2019-02-07T03:04:04.754Z,6.50
2019-02-07T03:06:43.135Z,6.60
2019-02-07T03:09:40.266Z,6.60
2019-02-07T03:12:21.238Z,6.60
2019-02-07T03:15:06.307Z,6.60
2019-02-07T03:17:52.899Z,6.70
2019-02-07T03:20:39.996Z,6.70
2019-02-07T03:23:28.205Z,6.70
2019-02-07T03:26:15.512Z,6.70
2019-02-07T03:29:06.736Z,6.70
2019-02-07T03:32:07.942Z,6.80
2019-02-07T03:34:45.394Z,6.80
2019-02-07T03:37:45.860Z,6.80
2019-02-07T03:40:32.959Z,6.80
2019-02-07T03:43:30.264Z,6.80
2019-02-07T03:46:18.483Z,6.70
2019-02-07T03:49:05.106Z,6.70
2019-02-07T03:51:47.306Z,6.60
2019-02-07T03:54:50.514Z,6.60
2019-02-07T03:57:32.785Z,6.50
2019-02-07T04:00:32.933Z,6.50
2019-02-07T04:03:19.601Z,6.50
2019-02-07T04:06:13.844Z,6.50
2019-02-07T04:09:20.048Z,6.50
2019-02-07T04:12:11.586Z,6.50
2019-02-07T04:15:08.112Z,6.50
2019-02-07T04:17:59.449Z,6.50
2019-02-07T04:20:56.620Z,6.50
2019-02-07T04:23:43.463Z,6.50
2019-02-07T04:26:38.104Z,6.50
2019-02-07T04:29:29.344Z,6.50
2019-02-07T04:32:23.469Z,6.50
2019-02-07T04:35:17.533Z,6.60
2019-02-07T04:38:16.164Z,6.60
2019-02-07T04:41:11.274Z,6.60
2019-02-07T04:44:08.691Z,6.60
2019-02-07T04:46:56.971Z,6.70
2019-02-07T04:49:54.105Z,6.60
2019-02-07T04:52:42.581Z,6.70
2019-02-07T04:55:39.213Z,6.70
2019-02-07T04:58:26.429Z,6.70
2019-02-07T05:01:06.257Z,6.70
2019-02-07T05:04:03.565Z,6.70
2019-02-07T05:06:57.913Z,6.70
2019-02-07T05:09:53.022Z,6.80
2019-02-07T05:12:44.032Z,6.80
2019-02-07T05:15:31.176Z,6.90
2019-02-07T05:18:17.747Z,7.00
2019-02-07T05:21:12.075Z,7.00
2019-02-07T05:24:15.239Z,7.00
2019-02-07T05:27:12.287Z,7.10
2019-02-07T05:30:15.432Z,7.20
2019-02-07T05:33:02.474Z,7.20
2019-02-07T05:35:59.824Z,7.30
2019-02-07T05:38:42.842Z,7.20
2019-02-07T05:41:26.396Z,7.20
2019-02-07T05:44:17.506Z,7.10
2019-02-07T05:47:02.214Z,7.20
2019-02-07T05:49:58.682Z,7.20
2019-02-07T05:52:42.330Z,7.20
2019-02-07T05:55:33.729Z,7.10
2019-02-07T05:58:32.674Z,7.10
2019-02-07T06:01:30.415Z,7.10
2019-02-07T06:04:23.827Z,7.10
2019-02-07T06:07:13.525Z,7.20
2019-02-07T06:10:07.756Z,7.10
2019-02-07T06:13:02.626Z,7.10
2019-02-07T06:15:49.868Z,7.10
2019-02-07T06:27:48.936Z,7.10
2019-02-07T06:30:40.179Z,7.10
2019-02-07T06:33:29.727Z,7.00
2019-02-07T06:36:16.666Z,7.00
2019-02-07T06:39:11.345Z,7.00
2019-02-07T06:42:05.624Z,6.90
2019-02-07T06:44:58.566Z,6.90
2019-02-07T06:47:47.306Z,6.80
2019-02-07T06:50:35.914Z,6.70
2019-02-07T06:53:24.749Z,6.70
2019-02-07T06:56:10.176Z,6.70
2019-02-07T06:58:55.285Z,6.60
2019-02-07T07:01:50.157Z,6.70
2019-02-07T07:04:37.092Z,6.70
2019-02-07T07:07:24.018Z,6.80
2019-02-07T07:10:12.405Z,6.90
2019-02-07T07:13:00.691Z,7.00
2019-02-07T07:15:58.313Z,7.00
2019-02-07T07:18:45.540Z,7.10
2019-02-07T07:21:37.263Z,7.20
2019-02-07T07:24:28.620Z,7.30
2019-02-07T07:27:15.882Z,7.40
2019-02-07T07:30:16.329Z,7.40
2019-02-07T07:32:58.173Z,7.50
2019-02-07T07:35:49.426Z,7.60
2019-02-07T07:38:48.607Z,7.50
2019-02-07T07:41:45.813Z,7.60
2019-02-07T07:44:32.633Z,7.60
2019-02-07T07:47:20.786Z,7.70
2019-02-07T07:50:04.279Z,7.60
2019-02-07T07:52:52.760Z,7.60
2019-02-07T07:55:47.333Z,7.70
2019-02-07T07:58:38.309Z,7.70
2019-02-07T08:01:28.897Z,7.70
2019-02-07T08:04:16.320Z,7.70
2019-02-07T08:07:19.873Z,7.60
2019-02-07T08:10:13.688Z,7.60
2019-02-07T08:13:08.061Z,7.60
2019-02-07T08:16:08.191Z,7.60
2019-02-07T08:19:09.757Z,7.60
2019-02-07T08:21:53.120Z,7.60
2019-02-07T08:24:40.034Z,7.40
2019-02-07T08:27:28.993Z,7.20
2019-02-07T08:30:36.540Z,7.00
2019-02-07T08:33:18.157Z,6.80
2019-02-07T08:36:05.063Z,6.70
2019-02-07T08:38:49.943Z,6.70
2019-02-07T08:41:36.994Z,6.70
2019-02-07T08:44:25.968Z,6.70
2019-02-07T08:47:30.209Z,6.70
2019-02-07T08:50:27.897Z,6.70
2019-02-07T08:53:16.439Z,6.80
2019-02-07T08:56:10.598Z,6.90
2019-02-07T08:59:10.581Z,6.90
2019-02-07T09:02:04.665Z,7.00
2019-02-07T09:04:51.803Z,7.10
2019-02-07T09:07:38.716Z,7.20
2019-02-07T09:10:24.821Z,7.40
2019-02-07T09:13:16.171Z,7.40
2019-02-07T09:16:13.287Z,7.50
2019-02-07T09:19:04.339Z,7.40
2019-02-07T09:21:56.159Z,7.40
2019-02-07T09:24:43.091Z,7.40
2019-02-07T09:27:31.317Z,7.60
2019-02-07T09:30:19.818Z,7.50
2019-02-07T09:33:06.658Z,7.70
2019-02-07T09:36:04.947Z,7.80
2019-02-07T09:38:46.123Z,7.90
2019-02-07T09:41:30.165Z,8.00
2019-02-07T09:44:21.410Z,8.00
2019-02-07T09:47:09.934Z,8.00
2019-02-07T09:49:58.200Z,7.80
2019-02-07T09:52:55.405Z,7.90
2019-02-07T09:55:49.430Z,7.90
2019-02-07T09:58:36.808Z,7.90
2019-02-07T10:01:24.025Z,7.80
2019-02-07T10:04:15.293Z,8.00
2019-02-07T10:07:02.276Z,8.10
2019-02-07T10:09:53.777Z,8.10
2019-02-07T10:12:56.988Z,8.10
2019-02-07T10:15:39.609Z,8.10
2019-02-07T10:18:33.192Z,8.20
2019-02-07T10:21:15.188Z,8.20
2019-02-07T10:24:03.400Z,8.30
2019-02-07T10:26:45.597Z,8.30
2019-02-07T10:29:34.973Z,8.50
2019-02-07T10:32:21.983Z,8.50
2019-02-07T10:34:58.489Z,8.70
2019-02-07T10:37:55.704Z,8.90
2019-02-07T10:40:36.649Z,9.10
2019-02-07T10:43:24.966Z,9.10
2019-02-07T10:46:21.446Z,9.30
2019-02-07T10:49:15.081Z,9.30
2019-02-07T10:51:55.933Z,9.20
2019-02-07T10:54:38.086Z,9.30
2019-02-07T10:57:26.389Z,9.50
2019-02-07T11:00:05.364Z,9.60
2019-02-07T11:02:51.944Z,9.50
2019-02-07T11:05:45.831Z,9.40
2019-02-07T11:08:39.919Z,9.50
2019-02-07T11:11:26.907Z,9.60
2019-02-07T11:14:10.745Z,9.50
2019-02-07T11:16:50.693Z,9.30
2019-02-07T11:19:37.594Z,9.20
2019-02-07T11:22:25.636Z,9.10
2019-02-07T11:25:19.851Z,9.10
2019-02-07T11:28:10.759Z,9.00
2019-02-07T11:31:00.501Z,9.30
2019-02-07T11:33:47.490Z,9.60
2019-02-07T11:36:53.864Z,9.80
2019-02-07T11:39:32.788Z,9.60
2019-02-07T11:42:23.121Z,9.70
2019-02-07T11:45:14.635Z,9.40
2019-02-07T11:48:11.788Z,9.30
2019-02-07T11:51:08.616Z,9.30
2019-02-07T11:53:56.838Z,9.60
2019-02-07T11:56:39.183Z,9.90
2019-02-07T11:59:30.326Z,9.90
2019-02-07T12:38:44.012Z,11.10
2019-02-07T12:41:21.983Z,11.00
2019-02-07T12:44:08.967Z,10.60
2019-02-07T12:46:55.968Z,10.20
2019-02-07T12:49:59.477Z,10.00
2019-02-07T12:52:54.810Z,9.90
2019-02-07T12:55:34.440Z,9.60
2019-02-07T12:58:31.382Z,9.70
2019-02-07T13:01:16.912Z,9.60
2019-02-07T13:03:53.902Z,9.30
2019-02-07T13:06:48.236Z,9.20
2019-02-07T13:09:37.742Z,9.20
2019-02-07T13:12:43.028Z,9.20
2019-02-07T13:15:31.473Z,9.50
2019-02-07T13:18:19.784Z,9.90
2019-02-07T13:21:06.570Z,10.30
2019-02-07T13:24:00.950Z,10.30
2019-02-07T13:26:41.643Z,10.10
2019-02-07T13:29:30.067Z,10.40
2019-02-07T13:32:17.325Z,10.60
2019-02-07T13:35:04.580Z,10.70
2019-02-07T13:38:11.355Z,10.60
2019-02-07T13:41:02.412Z,10.70
2019-02-07T13:44:02.561Z,10.60
2019-02-07T13:46:51.181Z,10.60
2019-02-07T13:49:37.824Z,10.10
2019-02-07T13:52:29.410Z,9.80
2019-02-07T13:55:26.698Z,10.00
2019-02-07T13:58:17.734Z,10.20
2019-02-07T14:01:03.354Z,10.00
2019-02-07T14:03:50.414Z,9.50
2019-02-07T14:06:45.473Z,9.40
2019-02-07T14:09:33.897Z,9.20
2019-02-07T14:12:25.160Z,9.20
2019-02-07T14:15:13.515Z,9.20
2019-02-07T14:18:19.603Z,9.20
2019-02-07T14:21:07.908Z,9.40
2019-02-07T14:24:02.455Z,9.80
2019-02-07T14:27:08.722Z,10.00
2019-02-07T14:29:51.125Z,9.70
2019-02-07T14:32:37.776Z,9.50
2019-02-07T14:35:30.194Z,9.30
2019-02-07T14:38:24.302Z,9.10
2019-02-07T14:41:08.551Z,9.00
2019-02-07T14:43:55.254Z,8.90
2019-02-07T14:46:43.521Z,8.90
2019-02-07T14:49:12.688Z,8.70
2019-02-07T14:51:42.239Z,8.60
2019-02-07T14:54:11.966Z,8.50
2019-02-07T14:56:41.526Z,8.50
2019-02-07T14:59:12.618Z,8.50
2019-02-07T15:01:42.321Z,8.50
2019-02-07T15:04:11.541Z,8.50
2019-02-07T15:06:40.842Z,8.50
2019-02-07T15:09:15.748Z,8.40
2019-02-07T15:11:45.243Z,8.40
2019-02-07T15:14:14.576Z,8.30
2019-02-07T15:16:44.109Z,8.30
2019-02-07T15:19:13.316Z,8.30
2019-02-07T15:21:43.873Z,8.30
2019-02-07T15:24:13.205Z,8.30
2019-02-07T15:26:42.716Z,8.30
2019-02-07T15:29:12.002Z,8.30
2019-02-07T15:31:41.251Z,8.20
2019-02-07T15:34:11.112Z,8.20
2019-02-07T15:36:41.877Z,8.20
2019-02-07T15:39:13.132Z,8.20
2019-02-07T15:41:42.922Z,8.20
2019-02-07T15:44:12.322Z,8.20
2019-02-07T15:46:41.946Z,8.20
2019-02-07T15:49:11.337Z,8.20
2019-02-07T15:51:40.821Z,8.20
2019-02-07T15:54:10.413Z,8.20
2019-02-07T15:56:39.815Z,8.10
2019-02-07T15:59:28.148Z,8.10
2019-02-07T16:02:31.390Z,8.10
2019-02-07T16:05:01.737Z,8.10
2019-02-07T16:07:31.110Z,8.00
2019-02-07T16:10:00.414Z,8.00
2019-02-07T16:12:30.251Z,7.90
2019-02-07T16:14:59.625Z,7.90
2019-02-07T16:17:29.069Z,7.80
2019-02-07T16:19:58.562Z,7.70
2019-02-07T16:22:28.003Z,7.70
2019-02-07T16:24:57.232Z,7.70
2019-02-07T16:27:26.869Z,7.60
2019-02-07T16:29:56.056Z,7.60
2019-02-07T16:32:25.448Z,7.60
2019-02-07T16:34:54.815Z,7.50
2019-02-07T16:37:24.242Z,7.50
2019-02-07T16:39:53.761Z,7.50
2019-02-07T16:42:24.040Z,7.50
2019-02-07T16:44:53.464Z,7.40
2019-02-07T16:47:23.165Z,7.30
2019-02-07T16:49:52.524Z,7.30
2019-02-07T16:52:21.862Z,7.30
2019-02-07T16:54:51.310Z,7.30
2019-02-07T16:57:20.793Z,7.30
2019-02-07T16:59:50.087Z,7.30
2019-02-07T17:02:19.378Z,7.30
2019-02-07T17:04:48.713Z,7.30
2019-02-07T17:07:18.076Z,7.40
2019-02-07T17:09:47.410Z,7.30
2019-02-07T17:12:16.776Z,7.20
2019-02-07T17:14:46.161Z,7.10
2019-02-07T17:17:16.016Z,7.00
2019-02-07T17:19:46.151Z,6.80
2019-02-07T17:22:15.484Z,6.60
2019-02-07T17:24:45.060Z,6.50
2019-02-07T17:27:14.461Z,6.30
2019-02-07T17:29:43.760Z,6.20
2019-02-07T17:32:13.051Z,6.10
2019-02-07T17:34:42.432Z,5.90
2019-02-07T17:37:11.734Z,5.80
2019-02-07T17:39:40.969Z,5.70
2019-02-07T17:42:10.251Z,5.60
2019-02-07T17:44:39.784Z,5.60
2019-02-07T17:47:10.470Z,5.50
2019-02-07T17:49:40.315Z,5.50
2019-02-07T17:52:09.596Z,5.40
2019-02-07T17:54:38.875Z,5.30
2019-02-07T17:57:08.692Z,5.30
2019-02-07T17:59:38.324Z,5.20
2019-02-07T18:02:09.162Z,5.20
2019-02-07T18:04:38.616Z,5.20
2019-02-07T18:07:08.091Z,5.10
2019-02-07T18:09:37.769Z,5.00
2019-02-07T18:12:07.065Z,5.00
2019-02-07T18:14:36.565Z,5.00
2019-02-07T18:17:05.824Z,5.00
2019-02-07T18:19:35.259Z,4.90
2019-02-07T18:22:04.857Z,4.90
2019-02-07T18:24:34.172Z,4.90
2019-02-07T18:27:03.488Z,4.90
2019-02-07T18:29:33.383Z,4.90
2019-02-07T18:32:02.707Z,4.90
2019-02-07T18:34:32.105Z,4.90
2019-02-07T18:37:01.295Z,4.90
2019-02-07T18:39:30.922Z,4.90
2019-02-07T18:42:00.316Z,5.00
2019-02-07T18:44:29.641Z,5.00
2019-02-07T18:46:59.465Z,5.10
2019-02-07T18:49:28.829Z,5.10
2019-02-07T18:51:58.205Z,5.10
2019-02-07T18:54:27.506Z,5.20
2019-02-07T18:56:56.885Z,5.20
2019-02-07T18:59:26.218Z,5.20
2019-02-07T19:01:55.599Z,5.20
2019-02-07T19:04:25.913Z,5.20
2019-02-07T19:06:55.239Z,5.20
2019-02-07T19:09:24.761Z,5.30
2019-02-07T19:11:54.113Z,5.30
2019-02-07T19:14:23.901Z,5.40
2019-02-07T19:16:53.508Z,5.40
2019-02-07T19:19:22.841Z,5.40
2019-02-07T19:21:57.137Z,5.40
2019-02-07T19:24:23.347Z,5.40
2019-02-07T19:26:54.067Z,5.40
2019-02-07T19:29:23.265Z,5.50
2019-02-07T19:31:52.731Z,5.50
2019-02-07T19:34:22.057Z,5.50
2019-02-07T19:36:54.197Z,5.40
2019-02-07T19:39:23.460Z,5.40
2019-02-07T19:41:53.325Z,5.40
2019-02-07T19:44:22.795Z,5.40
2019-02-07T19:46:52.245Z,5.40
2019-02-07T19:49:21.577Z,5.40
2019-02-07T19:51:51.187Z,5.40
2019-02-07T19:54:20.582Z,5.40
2019-02-07T19:56:50.054Z,5.40
2019-02-07T19:59:19.425Z,5.40
2019-02-07T20:01:48.683Z,5.30
2019-02-07T20:04:18.028Z,5.30
2019-02-07T20:06:47.557Z,5.30
2019-02-07T20:09:17.029Z,5.20
2019-02-07T20:11:46.596Z,5.10
2019-02-07T20:14:19.286Z,5.10
2019-02-07T20:16:48.697Z,5.00
2019-02-07T20:19:18.123Z,4.90
2019-02-07T20:21:47.942Z,4.90
2019-02-07T20:24:20.096Z,4.90
2019-02-07T20:26:49.719Z,4.90
2019-02-07T20:29:20.397Z,4.80
2019-02-07T20:31:49.670Z,4.80
2019-02-07T20:34:18.969Z,4.80
2019-02-07T20:36:48.451Z,4.80
2019-02-07T20:39:17.731Z,4.80
2019-02-07T20:41:46.996Z,4.80
2019-02-07T20:44:16.571Z,4.80
2019-02-07T20:46:45.837Z,4.80
2019-02-07T20:49:15.863Z,4.80
2019-02-07T20:51:45.283Z,4.70
2019-02-07T20:54:14.831Z,4.80
2019-02-07T20:56:44.245Z,4.80
2019-02-07T20:59:14.190Z,4.80
2019-02-07T21:01:44.513Z,4.80
2019-02-07T21:04:15.215Z,4.80
2019-02-07T21:06:44.545Z,4.80
2019-02-07T21:09:16.833Z,4.80
2019-02-07T21:11:46.163Z,4.80
2019-02-07T21:14:15.837Z,4.80
2019-02-07T21:16:45.184Z,4.80
2019-02-07T21:19:14.699Z,4.70
2019-02-07T21:21:45.873Z,4.70
2019-02-07T21:24:15.468Z,4.70
2019-02-07T21:26:45.418Z,4.70
2019-02-07T21:29:14.661Z,4.70
2019-02-07T21:31:43.903Z,4.70
2019-02-07T21:34:13.285Z,4.70
2019-02-07T21:36:42.735Z,4.70
2019-02-07T21:39:14.209Z,4.60
2019-02-07T21:41:43.666Z,4.60
2019-02-07T21:44:12.860Z,4.60
2019-02-07T21:46:42.440Z,4.60
2019-02-07T21:49:11.820Z,4.60
2019-02-07T21:51:41.045Z,4.60
2019-02-07T21:54:14.745Z,4.60
2019-02-07T21:56:44.407Z,4.60
2019-02-07T21:59:13.777Z,4.50
2019-02-07T22:01:45.269Z,4.60
2019-02-07T22:04:14.480Z,4.60
2019-02-07T22:06:52.307Z,4.60
2019-02-07T22:09:24.618Z,4.70
2019-02-07T22:11:54.320Z,4.70
2019-02-07T22:14:25.014Z,4.80
2019-02-07T22:16:54.238Z,4.80
2019-02-07T22:19:23.608Z,4.90
2019-02-07T22:21:53.056Z,4.90
2019-02-07T22:24:22.476Z,4.90
2019-02-07T22:26:52.089Z,5.00
2019-02-07T22:29:21.750Z,5.10
2019-02-07T22:31:54.390Z,5.10
2019-02-07T22:34:24.073Z,5.10
2019-02-07T22:36:56.304Z,5.10
2019-02-07T22:39:26.164Z,5.20
2019-02-07T22:41:55.583Z,5.20
2019-02-07T22:44:24.866Z,5.20
2019-02-07T22:46:54.137Z,5.20
2019-02-07T22:49:23.424Z,5.20
2019-02-07T22:51:52.657Z,5.20
2019-02-07T22:54:22.213Z,5.20
2019-02-07T22:56:51.762Z,5.10
2019-02-07T22:59:21.001Z,5.10
2019-02-07T23:01:53.163Z,5.00
2019-02-07T23:04:23.598Z,5.00
2019-02-07T23:06:53.171Z,5.00
2019-02-07T23:09:22.523Z,5.00
2019-02-07T23:11:52.261Z,5.00
2019-02-07T23:14:21.648Z,5.00
2019-02-07T23:16:50.992Z,5.00
2019-02-07T23:19:20.376Z,5.00
2019-02-07T23:21:49.916Z,5.00
2019-02-07T23:24:19.481Z,4.90
2019-02-07T23:26:49.821Z,4.90
2019-02-07T23:29:19.104Z,4.90
2019-02-07T23:31:48.363Z,4.90
2019-02-07T23:34:17.900Z,4.90
2019-02-07T23:36:47.091Z,4.90
2019-02-07T23:39:16.389Z,4.90
2019-02-07T23:41:45.946Z,4.90
2019-02-07T23:44:18.348Z,4.90
2019-02-07T23:46:47.937Z,5.00
2019-02-07T23:49:17.306Z,5.00
2019-02-07T23:51:47.119Z,5.00
2019-02-07T23:54:16.687Z,5.00
2019-02-07T23:56:46.297Z,5.00
2019-02-07T23:59:15.578Z,5.00
